Time;durP1;ratioP1;P1;durP2;ratioP2;P2;SDS_P1;SDS_P2;PMS_P1;PMS_P2;Temp;Humidity;BMP_temperature;BMP_pressure;BME280_temperature;BME280_humidity;BME280_pressure;Samples;Min_cycle;Max_cycle;Signal;HPM_P1;HPM_P2
2023/02/12 00:01:22;;;;;;;13.18;9.60;;;20.20;28.10;;;;;;4998282;28;20093;-61
2023/02/12 00:03:50;;;;;;;12.98;9.35;;;20.20;28.10;;;;;;4997225;28;20137;-61
2023/02/12 00:06:17;;;;;;;15.25;9.82;;;20.30;28.20;;;;;;5015650;28;20054;-61
2023/02/12 00:08:48;;;;;;;12.57;9.25;;;20.20;28.20;;;;;;5015202;28;20050;-61
2023/02/12 00:11:17;;;;;;;14.57;10.50;;;20.20;28.20;;;;;;5015468;28;20072;-62
2023/02/12 00:13:45;;;;;;;12.60;9.27;;;20.20;28.20;;;;;;5015068;28;20399;-61
2023/02/12 00:16:19;;;;;;;13.50;9.23;;;20.20;28.20;;;;;;5015178;28;20050;-61
2023/02/12 00:18:46;;;;;;;13.40;9.75;;;20.20;28.20;;;;;;5015038;28;20085;-61
2023/02/12 00:21:14;;;;;;;13.20;9.77;;;20.20;28.20;;;;;;4997080;28;20072;-61
2023/02/12 00:23:41;;;;;;;14.65;9.93;;;20.30;28.20;;;;;;5014944;28;20058;-61
2023/02/12 00:26:11;;;;;;;14.48;9.95;;;20.20;28.20;;;;;;5014619;28;20076;-61
2023/02/12 00:28:38;;;;;;;13.50;9.65;;;20.20;28.20;;;;;;5015092;28;20056;-61
2023/02/12 00:31:11;;;;;;;12.63;9.55;;;20.20;28.20;;;;;;5014564;28;20050;-60
2023/02/12 00:33:39;;;;;;;15.15;9.77;;;20.30;28.20;;;;;;5014292;28;20483;-61
2023/02/12 00:36:08;;;;;;;13.20;9.85;;;20.20;28.20;;;;;;5014910;28;20050;-60
2023/02/12 00:38:35;;;;;;;12.85;9.10;;;20.20;28.20;;;;;;5015048;28;20128;-61
2023/02/12 00:41:03;;;;;;;12.60;9.50;;;20.20;28.20;;;;;;5014571;28;20085;-61
2023/02/12 00:43:30;;;;;;;11.93;9.07;;;20.20;28.20;;;;;;5014622;28;20049;-60
2023/02/12 00:45:57;;;;;;;14.38;10.25;;;20.20;28.20;;;;;;5014684;28;20128;-61
2023/02/12 00:48:25;;;;;;;13.48;9.57;;;20.20;28.20;;;;;;5014516;28;20129;-60
2023/02/12 00:50:52;;;;;;;13.15;9.38;;;20.20;28.20;;;;;;5014744;28;20046;-61
2023/02/12 00:53:19;;;;;;;13.13;9.65;;;20.20;28.20;;;;;;5014575;28;20056;-61
2023/02/12 00:55:46;;;;;;;13.45;9.68;;;20.20;28.20;;;;;;5014192;28;20046;-61
2023/02/12 00:58:15;;;;;;;13.73;10.05;;;20.20;28.20;;;;;;5014347;28;20081;-61
2023/02/12 01:00:45;;;;;;;12.70;8.93;;;20.20;28.20;;;;;;5014626;28;20156;-62
2023/02/12 01:03:12;;;;;;;11.88;8.75;;;20.20;28.20;;;;;;5013460;28;20112;-61
2023/02/12 01:05:40;;;;;;;11.40;8.73;;;20.20;28.20;;;;;;5014003;28;20046;-61
2023/02/12 01:08:07;;;;;;;13.65;9.45;;;20.20;28.20;;;;;;5014442;28;20081;-61
2023/02/12 01:10:34;;;;;;;13.32;8.95;;;20.20;28.20;;;;;;5014422;28;20052;-60
2023/02/12 01:13:01;;;;;;;10.75;9.00;;;20.20;28.20;;;;;;5014139;28;20133;-61
2023/02/12 01:15:28;;;;;;;13.30;9.38;;;20.20;28.20;;;;;;5014408;28;20157;-60
2023/02/12 01:17:55;;;;;;;11.57;8.77;;;20.20;28.20;;;;;;5013836;28;20042;-61
2023/02/12 01:20:23;;;;;;;12.85;9.07;;;20.20;28.30;;;;;;5013886;28;20092;-60
2023/02/12 01:22:51;;;;;;;12.93;9.10;;;20.20;28.30;;;;;;5014375;28;20042;-61
2023/02/12 01:25:18;;;;;;;11.00;8.18;;;20.20;28.30;;;;;;5014088;28;20064;-61
2023/02/12 01:27:46;;;;;;;13.20;9.23;;;20.20;28.30;;;;;;5013894;28;20379;-62
2023/02/12 01:30:14;;;;;;;13.38;8.13;;;20.20;28.30;;;;;;5013590;28;20136;-61
2023/02/12 01:32:42;;;;;;;12.55;8.38;;;20.20;28.30;;;;;;5013922;28;20137;-60
2023/02/12 01:35:10;;;;;;;11.00;8.35;;;20.20;28.70;;;;;;5014013;28;20104;-61
2023/02/12 01:37:38;;;;;;;12.30;8.77;;;20.10;28.30;;;;;;4996080;28;20056;-61
2023/02/12 01:40:07;;;;;;;11.73;8.40;;;20.20;28.30;;;;;;4996297;28;20057;-60
2023/02/12 01:42:35;;;;;;;12.85;8.73;;;20.20;28.30;;;;;;5014066;28;20064;-60
2023/02/12 01:45:42;;;;;;;12.30;8.73;;;20.20;28.30;;;;;;5013845;28;20073;-61
2023/02/12 01:48:11;;;;;;;10.90;8.13;;;20.10;28.30;;;;;;5013622;28;20050;-60
2023/02/12 01:50:38;;;;;;;11.85;9.05;;;20.20;28.30;;;;;;4996261;28;20461;-61
2023/02/12 01:53:05;;;;;;;12.65;8.68;;;20.10;28.30;;;;;;5013552;28;20052;-61
2023/02/12 01:55:32;;;;;;;13.82;9.35;;;20.10;28.30;;;;;;5013633;28;20050;-61
2023/02/12 01:57:59;;;;;;;10.77;8.32;;;20.10;28.30;;;;;;5014035;28;20045;-61
2023/02/12 02:00:27;;;;;;;10.95;8.05;;;20.10;28.30;;;;;;4995839;28;20140;-60
2023/02/12 02:02:57;;;;;;;11.75;9.00;;;20.10;28.40;;;;;;5013670;28;20050;-61
2023/02/12 02:05:37;;;;;;;13.45;8.93;;;20.10;28.30;;;;;;5013406;28;20494;-61
2023/02/12 02:08:05;;;;;;;12.23;8.32;;;20.10;28.30;;;;;;5013229;28;20128;-61
2023/02/12 02:10:32;;;;;;;12.32;8.27;;;20.10;28.30;;;;;;5012857;28;20085;-60
2023/02/12 02:15:50;;;;;;;11.35;8.25;;;20.10;28.30;;;;;;5013167;28;20050;-61
2023/02/12 02:18:35;;;;;;;11.57;8.40;;;20.10;28.30;;;;;;5013439;28;20402;-61
2023/02/12 02:21:37;;;;;;;11.40;8.52;;;20.10;28.30;;;;;;5013227;28;20514;-61
2023/02/12 02:24:39;;;;;;;11.30;8.32;;;20.10;28.40;;;;;;5013034;28;20048;-61
2023/02/12 02:27:39;;;;;;;10.65;8.52;;;20.10;28.40;;;;;;5013178;28;20129;-61
2023/02/12 02:30:27;;;;;;;11.57;7.72;;;20.10;28.40;;;;;;5013086;28;20046;-61
2023/02/12 02:33:29;;;;;;;11.85;8.35;;;20.10;28.40;;;;;;5013364;28;20141;-61
2023/02/12 02:36:36;;;;;;;10.38;8.02;;;20.10;28.40;;;;;;5012999;28;20046;-61
2023/02/12 02:39:52;;;;;;;11.32;8.20;;;20.10;28.40;;;;;;5003030;28;20100;-61
2023/02/12 02:42:36;;;;;;;10.60;8.55;;;20.10;28.40;;;;;;4993715;28;20048;-61
2023/02/12 02:45:18;;;;;;;10.40;8.18;;;20.10;28.40;;;;;;4993050;28;20511;-61
2023/02/12 02:47:55;;;;;;;11.05;8.13;;;20.10;28.40;;;;;;4993477;28;20061;-61
2023/02/12 02:50:26;;;;;;;11.38;7.93;;;20.10;28.40;;;;;;4976159;28;20054;-61
2023/02/12 02:53:09;;;;;;;12.38;8.48;;;20.10;28.40;;;;;;4993551;28;20051;-61
2023/02/12 02:55:50;;;;;;;9.88;7.85;;;20.10;28.40;;;;;;4993158;28;20089;-61
2023/02/12 02:58:24;;;;;;;12.00;8.43;;;20.10;28.40;;;;;;4993562;28;20125;-61
2023/02/12 03:00:59;;;;;;;10.85;7.88;;;20.10;28.40;;;;;;4992916;28;20053;-61
2023/02/12 03:03:50;;;;;;;11.25;8.32;;;20.10;28.40;;;;;;4993353;28;20050;-61
2023/02/12 03:06:31;;;;;;;12.40;9.07;;;20.10;28.40;;;;;;4993541;28;20074;-61
2023/02/12 03:09:08;;;;;;;10.90;8.20;;;20.10;28.40;;;;;;4992892;28;20046;-61
2023/02/12 03:11:35;;;;;;;11.05;8.48;;;20.10;28.40;;;;;;4993029;28;20057;-61
2023/02/12 03:14:13;;;;;;;10.18;7.53;;;20.10;28.40;;;;;;4993422;28;20464;-61
2023/02/12 03:17:04;;;;;;;9.55;7.18;;;20.10;28.40;;;;;;4993170;28;20085;-61
2023/02/12 03:19:36;;;;;;;10.73;8.27;;;20.10;28.40;;;;;;4992995;28;20093;-60
2023/02/12 03:22:11;;;;;;;10.95;8.07;;;20.00;28.40;;;;;;4993005;28;20050;-60
2023/02/12 03:24:46;;;;;;;11.48;8.15;;;20.10;28.50;;;;;;4992959;28;20046;-60
2023/02/12 03:27:30;;;;;;;11.45;8.02;;;20.10;28.50;;;;;;5006251;28;20052;-61
2023/02/12 03:29:58;;;;;;;9.73;7.65;;;20.10;28.50;;;;;;5016067;28;20049;-61
2023/02/12 03:33:05;;;;;;;10.18;7.70;;;20.10;28.50;;;;;;5016077;28;20057;-61
2023/02/12 03:35:40;;;;;;;8.98;7.00;;;20.10;28.50;;;;;;5004453;28;20244;-60
2023/02/12 03:38:28;;;;;;;9.00;7.07;;;20.10;28.50;;;;;;5016088;28;20497;-63
2023/02/12 03:41:04;;;;;;;11.07;7.88;;;20.00;28.50;;;;;;5015876;28;20042;-61
2023/02/12 03:43:49;;;;;;;11.75;8.02;;;20.00;28.50;;;;;;5015964;28;20053;-60
2023/02/12 03:46:43;;;;;;;9.75;7.47;;;20.10;28.50;;;;;;5016114;28;20046;-60
2023/02/12 03:49:21;;;;;;;10.40;8.23;;;20.10;28.60;;;;;;5015589;28;20052;-61
2023/02/12 03:51:48;;;;;;;11.18;8.02;;;20.00;28.50;;;;;;5015446;28;20466;-61
2023/02/12 03:54:19;;;;;;;8.57;6.90;;;20.00;28.50;;;;;;5015925;28;20046;-61
2023/02/12 03:56:51;;;;;;;;;;;20.00;28.50;;;;;;5016379;28;20129;-61
2023/02/12 03:59:20;;;;;;;9.75;6.93;;;20.00;28.50;;;;;;5015416;28;20016;-61
2023/02/12 04:01:48;;;;;;;9.63;7.22;;;20.00;28.50;;;;;;5015352;28;20092;-61
2023/02/12 04:04:17;;;;;;;9.35;7.10;;;20.00;28.60;;;;;;5015474;28;20054;-61
2023/02/12 04:06:46;;;;;;;8.88;6.90;;;20.00;28.60;;;;;;5015137;28;20052;-60
2023/02/12 04:09:14;;;;;;;8.70;7.47;;;20.00;28.60;;;;;;5015705;28;20050;-61
2023/02/12 04:12:18;;;;;;;9.30;7.05;;;20.00;28.60;;;;;;5015202;28;20038;-60
2023/02/12 04:15:24;;;;;;;8.90;6.07;;;20.00;28.60;;;;;;5015367;28;20129;-60
2023/02/12 04:18:18;;;;;;;8.73;6.65;;;20.00;28.60;;;;;;5015776;28;20054;-61
2023/02/12 04:21:09;;;;;;;7.18;6.10;;;20.00;28.60;;;;;;5014938;28;20049;-60
2023/02/12 04:23:56;;;;;;;7.18;5.75;;;20.00;28.70;;;;;;5014686;28;20046;-61
2023/02/12 04:26:51;;;;;;;8.40;6.78;;;20.00;28.70;;;;;;5014937;28;20060;-61
2023/02/12 04:29:32;;;;;;;8.82;6.68;;;20.00;28.70;;;;;;5000884;28;20482;-61
2023/02/12 04:32:05;;;;;;;;;;;20.00;28.70;;;;;;5015414;28;20054;-61
2023/02/12 04:34:51;;;;;;;8.32;6.43;;;20.00;28.80;;;;;;5014987;28;19927;-60
2023/02/12 04:37:24;;;;;;;6.25;5.60;;;20.00;28.80;;;;;;5015100;28;20056;-62
2023/02/12 04:39:53;;;;;;;9.75;6.93;;;20.00;28.80;;;;;;5014630;28;20046;-61
2023/02/12 04:42:20;;;;;;;8.38;6.40;;;20.00;28.80;;;;;;5014853;28;20046;-61
2023/02/12 04:44:47;;;;;;;7.93;6.10;;;20.00;28.80;;;;;;4997301;28;20042;-61
2023/02/12 04:47:15;;;;;;;9.02;6.53;;;20.00;28.80;;;;;;5015021;28;20060;-61
2023/02/12 04:49:43;;;;;;;6.97;5.35;;;20.00;28.80;;;;;;5014276;28;20355;-61
2023/02/12 04:52:10;;;;;;;8.32;5.63;;;20.00;28.80;;;;;;5014708;28;20085;-61
2023/02/12 04:54:37;;;;;;;7.03;5.55;;;20.00;28.90;;;;;;5014496;28;20052;-61
2023/02/12 04:57:04;;;;;;;6.47;5.20;;;20.00;28.90;;;;;;5013966;28;20089;-60
2023/02/12 04:59:31;;;;;;;6.70;5.53;;;20.00;28.90;;;;;;5014642;28;20050;-60
2023/02/12 05:01:58;;;;;;;8.55;5.85;;;20.00;28.90;;;;;;5014741;28;20050;-60
2023/02/12 05:04:25;;;;;;;8.60;5.32;;;20.00;28.90;;;;;;5014500;28;20050;-61
2023/02/12 05:06:52;;;;;;;5.50;4.68;;;20.00;28.90;;;;;;5014572;28;20489;-60
2023/02/12 05:09:20;;;;;;;6.90;5.25;;;20.00;28.90;;;;;;5013952;28;20058;-60
2023/02/12 05:11:47;;;;;;;6.60;5.25;;;20.00;28.90;;;;;;5014432;28;20069;-61
2023/02/12 05:14:14;;;;;;;7.07;5.38;;;19.90;28.90;;;;;;5014116;28;20054;-60
2023/02/12 05:16:42;;;;;;;8.18;5.60;;;19.90;28.90;;;;;;5014487;28;20129;-60
2023/02/12 05:19:09;;;;;;;5.75;4.55;;;19.90;29.00;;;;;;5013952;28;20483;-60
2023/02/12 05:21:37;;;;;;;6.05;4.60;;;19.90;29.00;;;;;;5013974;28;20486;-61
2023/02/12 05:24:04;;;;;;;5.90;4.78;;;19.90;29.00;;;;;;5014267;28;20133;-60
2023/02/12 05:26:32;;;;;;;6.25;4.60;;;19.90;29.00;;;;;;5013991;28;20074;-61
2023/02/12 05:28:59;;;;;;;5.35;4.53;;;19.90;29.00;;;;;;5013521;28;20422;-60
2023/02/12 05:31:26;;;;;;;8.18;4.82;;;20.00;29.10;;;;;;5013841;28;20136;-61
2023/02/12 05:33:54;;;;;;;5.68;4.50;;;19.90;29.00;;;;;;5014018;28;20081;-60
2023/02/12 05:36:22;;;;;;;8.90;4.68;;;19.90;29.00;;;;;;5013838;28;20089;-60
2023/02/12 05:38:51;;;;;;;7.13;5.20;;;19.90;29.10;;;;;;5013927;28;20125;-61
2023/02/12 05:41:21;;;;;;;6.57;5.22;;;19.90;29.10;;;;;;5013786;28;20045;-61
2023/02/12 05:43:49;;;;;;;5.38;4.72;;;19.90;29.20;;;;;;5012838;28;20053;-61
2023/02/12 05:46:18;;;;;;;8.50;5.00;;;19.90;29.30;;;;;;5013651;28;20046;-60
2023/02/12 05:48:46;;;;;;;6.05;4.88;;;19.80;29.30;;;;;;5013395;28;20058;-61
2023/02/12 05:51:16;;;;;;;6.10;4.80;;;19.80;29.30;;;;;;5013573;28;20562;-61
2023/02/12 05:53:43;;;;;;;4.63;3.95;;;19.80;29.40;;;;;;5013495;28;20065;-61
2023/02/12 05:56:15;;;;;;;6.75;4.65;;;19.80;29.40;;;;;;5013831;28;20050;-60
2023/02/12 05:58:45;;;;;;;5.75;4.63;;;19.80;29.40;;;;;;5013744;28;20125;-61
2023/02/12 06:01:26;;;;;;;5.43;4.65;;;19.80;29.40;;;;;;5013436;28;20050;-61
2023/02/12 06:03:54;;;;;;;4.82;4.25;;;19.80;29.90;;;;;;5013413;28;20060;-61
2023/02/12 06:06:23;;;;;;;6.03;4.40;;;19.80;29.50;;;;;;5013518;28;20050;-60
2023/02/12 06:08:50;;;;;;;5.35;4.30;;;19.90;29.50;;;;;;5013137;28;20046;-61
2023/02/12 06:11:19;;;;;;;5.18;3.85;;;19.90;29.50;;;;;;5013256;28;20046;-61
2023/02/12 06:13:47;;;;;;;6.43;4.28;;;19.90;29.50;;;;;;5013250;28;20084;-61
2023/02/12 06:16:23;;;;;;;6.85;4.05;;;19.90;29.40;;;;;;5013263;28;20145;-61
2023/02/12 06:18:51;;;;;;;5.43;4.10;;;19.90;29.40;;;;;;5012314;28;20074;-61
2023/02/12 06:21:20;;;;;;;4.00;3.58;;;20.00;29.40;;;;;;5013197;28;20108;-61
2023/02/12 06:23:48;;;;;;;6.10;4.20;;;20.00;29.40;;;;;;5011879;28;20046;-61
2023/02/12 06:26:15;;;;;;;3.60;3.30;;;20.10;29.40;;;;;;5013241;28;20057;-61
2023/02/12 06:28:43;;;;;;;4.38;3.67;;;20.10;29.40;;;;;;5012981;28;20053;-61
2023/02/12 06:31:28;;;;;;;5.22;4.00;;;20.10;29.40;;;;;;5013027;28;20057;-61
2023/02/12 06:33:57;;;;;;;4.50;4.10;;;20.20;29.30;;;;;;5011942;28;20104;-61
2023/02/12 06:36:25;;;;;;;4.72;3.72;;;20.30;29.40;;;;;;5013291;28;20046;-61
2023/02/12 06:38:52;;;;;;;4.65;3.67;;;20.30;29.30;;;;;;5013440;28;20042;-61
2023/02/12 06:41:21;;;;;;;3.78;3.17;;;20.30;29.30;;;;;;5030558;28;20045;-61
2023/02/12 06:43:48;;;;;;;3.78;3.40;;;20.40;29.30;;;;;;5033038;28;20128;-61
2023/02/12 06:46:15;;;;;;;4.00;3.60;;;20.40;29.30;;;;;;5032801;28;20045;-61
2023/02/12 06:48:43;;;;;;;4.45;3.50;;;20.40;29.30;;;;;;5032558;28;20058;-61
2023/02/12 06:51:14;;;;;;;4.15;3.33;;;20.50;29.30;;;;;;5032544;28;20136;-61
2023/02/12 06:53:42;;;;;;;3.38;3.05;;;20.50;29.30;;;;;;5032495;28;20067;-61
2023/02/12 06:56:11;;;;;;;3.25;2.95;;;20.50;29.20;;;;;;5032564;28;20056;-61
2023/02/12 06:58:41;;;;;;;3.97;3.53;;;20.60;29.20;;;;;;5032481;28;20136;-61
2023/02/12 07:01:16;;;;;;;3.45;3.13;;;20.60;29.20;;;;;;5017341;28;20137;-61
2023/02/12 07:03:49;;;;;;;4.30;3.60;;;20.70;29.20;;;;;;5036291;28;20513;-61
2023/02/12 07:06:18;;;;;;;5.75;3.60;;;20.70;29.10;;;;;;5018646;28;20475;-62
2023/02/12 07:08:45;;;;;;;4.20;3.38;;;20.70;29.10;;;;;;5035832;28;20080;-61
2023/02/12 07:11:13;;;;;;;4.43;3.50;;;20.80;29.10;;;;;;5036180;28;20056;-60
2023/02/12 07:13:41;;;;;;;4.20;3.25;;;20.80;29.10;;;;;;5035932;28;20046;-61
2023/02/12 07:16:11;;;;;;;4.05;3.63;;;20.80;29.00;;;;;;5036215;28;20049;-61
2023/02/12 07:18:39;;;;;;;3.60;3.30;;;20.90;29.00;;;;;;5036060;28;20042;-61
2023/02/12 07:21:07;;;;;;;4.53;3.50;;;20.90;29.00;;;;;;5036378;28;20078;-61
2023/02/12 07:23:35;;;;;;;4.53;3.45;;;20.90;29.40;;;;;;5035952;28;20516;-61
2023/02/12 07:26:05;;;;;;;4.45;3.45;;;21.00;29.00;;;;;;5035711;28;20049;-61
2023/02/12 07:28:32;;;;;;;3.50;3.10;;;21.00;29.00;;;;;;5036099;28;20049;-61
2023/02/12 07:31:09;;;;;;;5.25;3.97;;;21.00;29.00;;;;;;5035762;28;20660;-61
2023/02/12 07:33:38;;;;;;;4.35;3.75;;;21.10;29.00;;;;;;5035881;28;20148;-61
2023/02/12 07:36:08;;;;;;;3.90;3.38;;;21.10;29.00;;;;;;5036181;28;20050;-61
2023/02/12 07:38:38;;;;;;;4.03;3.15;;;21.10;29.00;;;;;;5036037;28;20041;-61
2023/02/12 07:41:14;;;;;;;3.90;3.17;;;21.10;29.00;;;;;;5035686;28;20083;-61
2023/02/12 07:43:44;;;;;;;4.55;3.47;;;21.10;29.00;;;;;;5035270;28;20133;-61
2023/02/12 07:46:15;;;;;;;4.70;3.10;;;21.20;29.00;;;;;;5018726;28;20042;-61
2023/02/12 07:48:44;;;;;;;3.63;3.28;;;21.20;29.00;;;;;;5035410;28;20053;-61
2023/02/12 07:51:17;;;;;;;4.82;3.58;;;21.20;29.00;;;;;;5035405;28;20089;-61
2023/02/12 07:53:45;;;;;;;5.45;4.15;;;21.20;29.00;;;;;;5035320;28;20057;-61
2023/02/12 07:56:15;;;;;;;5.15;3.67;;;21.30;29.00;;;;;;5035371;28;20137;-61
2023/02/12 07:58:44;;;;;;;4.32;3.58;;;21.30;29.00;;;;;;5035285;28;20056;-61
2023/02/12 08:01:20;;;;;;;4.18;3.22;;;21.30;29.00;;;;;;5035388;28;20508;-61
2023/02/12 08:03:49;;;;;;;3.50;3.13;;;21.30;28.90;;;;;;5035192;28;20563;-61
2023/02/12 08:06:19;;;;;;;2.83;2.60;;;21.40;29.00;;;;;;5035598;28;20050;-61
2023/02/12 08:08:47;;;;;;;3.53;2.83;;;21.40;29.00;;;;;;5015984;28;20423;-61
2023/02/12 08:11:16;;;;;;;3.20;2.88;;;21.40;28.90;;;;;;5015107;28;20088;-61
2023/02/12 08:13:44;;;;;;;4.30;3.03;;;21.50;29.00;;;;;;5015555;28;20077;-61
2023/02/12 08:16:17;;;;;;;3.17;2.72;;;21.50;29.00;;;;;;5015045;28;20052;-61
2023/02/12 08:18:45;;;;;;;3.53;3.17;;;21.50;29.40;;;;;;5015123;28;20056;-61
2023/02/12 08:21:18;;;;;;;4.78;3.25;;;21.60;29.00;;;;;;5015144;28;20049;-61
2023/02/12 08:23:50;;;;;;;2.83;2.50;;;21.60;29.00;;;;;;4998166;28;20049;-61
2023/02/12 08:26:20;;;;;;;2.95;2.65;;;21.60;29.00;;;;;;4998601;28;20054;-61
2023/02/12 08:28:54;;;;;;;3.70;2.78;;;21.60;29.00;;;;;;5014993;28;20050;-61
2023/02/12 08:31:24;;;;;;;2.72;2.47;;;21.70;29.00;;;;;;5014961;28;20072;-61
2023/02/12 08:33:53;;;;;;;3.40;3.08;;;21.70;29.00;;;;;;5014756;28;20050;-61
2023/02/12 08:36:23;;;;;;;3.30;2.95;;;21.70;29.00;;;;;;5014839;28;20053;-61
2023/02/12 08:38:50;;;;;;;3.03;2.70;;;21.70;29.00;;;;;;4997243;28;20046;-61
2023/02/12 08:41:21;;;;;;;3.53;3.08;;;21.80;29.00;;;;;;5014767;28;20049;-61
2023/02/12 08:43:48;;;;;;;;;;;21.80;29.00;;;;;;5015425;28;20129;-61
2023/02/12 08:46:18;;;;;;;3.53;2.70;;;21.80;29.00;;;;;;5014691;28;19933;-61
2023/02/12 08:48:46;;;;;;;2.95;2.70;;;21.80;29.00;;;;;;5014592;28;20081;-61
2023/02/12 08:51:18;;;;;;;3.88;2.60;;;21.80;29.00;;;;;;5014654;28;20054;-61
2023/02/12 08:53:50;;;;;;;2.95;2.30;;;21.90;29.10;;;;;;5014415;28;20046;-60
2023/02/12 08:56:17;;;;;;;3.22;2.60;;;21.90;29.00;;;;;;5014761;28;20083;-61
2023/02/12 08:58:45;;;;;;;3.00;2.63;;;21.90;29.00;;;;;;5014778;28;20133;-61
2023/02/12 09:01:15;;;;;;;3.42;2.53;;;22.00;29.10;;;;;;5014397;28;20054;-61
2023/02/12 09:03:43;;;;;;;3.15;2.95;;;22.00;29.10;;;;;;5014779;28;20414;-61
2023/02/12 09:06:11;;;;;;;2.35;2.10;;;22.00;29.10;;;;;;5014441;28;20053;-61
2023/02/12 09:08:39;;;;;;;3.08;2.80;;;22.00;29.10;;;;;;5014389;28;20053;-61
2023/02/12 09:11:15;;;;;;;2.97;2.78;;;22.00;29.10;;;;;;5014334;28;20045;-61
2023/02/12 09:13:44;;;;;;;4.07;3.58;;;22.00;29.10;;;;;;5014043;28;20084;-61
2023/02/12 09:16:12;;;;;;;3.22;2.92;;;22.00;29.10;;;;;;5014202;28;20489;-61
2023/02/12 09:18:40;;;;;;;2.70;2.50;;;22.00;29.10;;;;;;5013843;28;20148;-61
2023/02/12 09:21:10;;;;;;;5.30;2.67;;;22.10;29.20;;;;;;5014212;28;20133;-61
2023/02/12 09:23:38;;;;;;;;;;;22.10;29.20;;;;;;5013026;28;20172;-61
2023/02/12 09:26:07;;;;;;;2.92;2.47;;;22.10;29.20;;;;;;5014306;28;19925;-61
2023/02/12 09:28:36;;;;;;;2.63;2.17;;;22.10;29.20;;;;;;5014149;28;20057;-61
2023/02/12 09:31:13;;;;;;;4.28;1.92;;;22.20;29.20;;;;;;5013775;28;20136;-61
2023/02/12 09:33:41;;;;;;;2.17;1.98;;;22.20;29.20;;;;;;5012569;28;20483;-61
2023/02/12 09:36:14;;;;;;;2.60;2.40;;;22.20;29.20;;;;;;5013826;28;20484;-61
2023/02/12 09:38:42;;;;;;;3.15;2.60;;;22.20;29.20;;;;;;5013808;28;20395;-61
2023/02/12 09:41:49;;;;;;;3.50;2.15;;;22.20;29.20;;;;;;5013628;28;20049;-61
2023/02/12 09:44:45;;;;;;;2.05;1.88;;;22.20;29.20;;;;;;5013496;28;20050;-61
2023/02/12 09:47:23;;;;;;;3.13;2.35;;;22.30;29.30;;;;;;5013998;28;20111;-61
2023/02/12 09:50:28;;;;;;;4.80;1.92;;;22.30;29.30;;;;;;5013168;28;20054;-61
2023/02/12 09:52:57;;;;;;;5.25;2.25;;;22.30;29.30;;;;;;5013636;28;20508;-61
2023/02/12 09:55:30;;;;;;;4.25;2.10;;;22.30;29.30;;;;;;5013559;28;20108;-61
2023/02/12 09:57:59;;;;;;;3.15;1.95;;;22.40;29.30;;;;;;5013241;28;20140;-61
2023/02/12 10:00:30;;;;;;;8.13;2.15;;;22.40;29.30;;;;;;5013475;28;20056;-61
2023/02/12 10:03:01;;;;;;;;;;;22.50;29.30;;;;;;5013859;28;20056;-61
2023/02/12 10:05:40;;;;;;;2.03;1.75;;;22.50;29.30;;;;;;5013311;28;19968;-61
2023/02/12 10:08:31;;;;;;;2.63;1.90;;;22.50;29.20;;;;;;5013414;28;20136;-61
2023/02/12 10:11:37;;;;;;;2.40;1.92;;;22.50;29.20;;;;;;5013033;28;20068;-61
2023/02/12 10:14:43;;;;;;;2.17;1.88;;;22.60;29.20;;;;;;5013634;28;20072;-61
2023/02/12 10:17:44;;;;;;;2.28;1.77;;;22.60;29.20;;;;;;5013364;28;20056;-61
2023/02/12 10:20:38;;;;;;;2.33;2.10;;;22.70;29.20;;;;;;5013436;28;20379;-61
2023/02/12 10:23:29;;;;;;;2.17;1.88;;;22.70;29.10;;;;;;5013324;28;20057;-61
2023/02/12 10:26:24;;;;;;;3.03;2.25;;;22.70;29.10;;;;;;5012946;28;20500;-61
2023/02/12 10:28:53;;;;;;;2.15;1.95;;;22.80;29.10;;;;;;5013125;28;20054;-61
2023/02/12 10:31:37;;;;;;;2.08;1.75;;;22.80;29.10;;;;;;5013004;28;20056;-62
2023/02/12 10:34:17;;;;;;;2.90;1.60;;;22.80;29.10;;;;;;4996124;28;20096;-61
2023/02/12 10:36:46;;;;;;;;;;;22.80;29.10;;;;;;5017426;28;20054;-61
2023/02/12 10:39:26;;;;;;;1.85;1.63;;;22.80;29.10;;;;;;5017018;28;19921;-61
2023/02/12 10:42:15;;;;;;;1.90;1.77;;;22.80;29.10;;;;;;5017036;28;20045;-61
2023/02/12 10:44:43;;;;;;;1.95;1.65;;;22.90;29.10;;;;;;5015458;28;20053;-61
2023/02/12 10:47:19;;;;;;;1.67;1.50;;;22.90;29.10;;;;;;5016945;28;20050;-61
2023/02/12 10:49:55;;;;;;;1.67;1.58;;;22.90;29.10;;;;;;5016696;28;20132;-61
2023/02/12 10:52:47;;;;;;;2.90;1.83;;;22.90;29.10;;;;;;5016828;28;20058;-61
2023/02/12 10:55:33;;;;;;;1.80;1.70;;;22.90;29.10;;;;;;5017048;28;20050;-61
2023/02/12 10:58:03;;;;;;;2.00;1.40;;;22.90;29.10;;;;;;5016616;28;20052;-61
2023/02/12 11:00:36;;;;;;;2.15;1.45;;;22.90;29.10;;;;;;5016684;28;20041;-61
2023/02/12 11:03:20;;;;;;;1.63;1.35;;;23.00;29.10;;;;;;4999171;28;20133;-61
2023/02/12 11:05:48;;;;;;;1.77;1.50;;;23.00;29.10;;;;;;5016736;28;20050;-61
2023/02/12 11:08:32;;;;;;;1.80;1.70;;;23.00;29.00;;;;;;5016915;28;20417;-61
2023/02/12 11:11:13;;;;;;;1.65;1.55;;;23.00;29.00;;;;;;5016646;28;20056;-61
2023/02/12 11:13:47;;;;;;;1.83;1.70;;;23.10;29.10;;;;;;5016246;28;20050;-61
2023/02/12 11:16:33;;;;;;;1.85;1.75;;;23.10;29.00;;;;;;5016517;28;20605;-61
2023/02/12 11:19:04;;;;;;;2.05;1.88;;;23.30;29.10;;;;;;5016032;28;20050;-61
2023/02/12 11:21:33;;;;;;;1.70;1.52;;;23.30;29.10;;;;;;5016534;28;20049;-61
2023/02/12 11:24:29;;;;;;;2.08;1.88;;;23.40;29.10;;;;;;5016212;28;20052;-61
2023/02/12 11:27:24;;;;;;;2.10;1.90;;;23.40;29.00;;;;;;5016543;28;20072;-61
2023/02/12 11:30:14;;;;;;;1.50;1.40;;;23.40;29.00;;;;;;5016181;28;20489;-61
2023/02/12 11:32:41;;;;;;;2.15;1.50;;;23.40;29.00;;;;;;5016019;28;20544;-61
2023/02/12 11:35:27;;;;;;;1.70;1.60;;;23.40;29.00;;;;;;5015403;28;20068;-63
2023/02/12 11:37:57;;;;;;;2.05;1.85;;;23.40;29.00;;;;;;5015949;28;20064;-61
2023/02/12 11:40:30;;;;;;;1.23;1.17;;;23.40;29.00;;;;;;5016008;28;20073;-61
2023/02/12 11:43:08;;;;;;;1.80;1.70;;;23.50;29.00;;;;;;5015953;28;20479;-61
2023/02/12 11:45:48;;;;;;;1.90;1.60;;;23.50;29.10;;;;;;5013595;28;20049;-61
2023/02/12 11:48:17;;;;;;;;;;;23.50;29.00;;;;;;5013736;28;20053;-61
2023/02/12 11:50:48;;;;;;;2.13;1.92;;;23.60;29.10;;;;;;5022312;28;19921;-61
2023/02/12 11:53:26;;;;;;;1.65;1.52;;;23.60;29.00;;;;;;5001282;28;20057;-61
2023/02/12 11:56:05;;;;;;;1.75;1.65;;;23.60;29.00;;;;;;5023336;28;20461;-61
2023/02/12 11:58:33;;;;;;;2.67;1.73;;;23.60;29.00;;;;;;5006685;28;20136;-62
2023/02/12 12:01:15;;;;;;;1.60;1.50;;;23.60;29.00;;;;;;5015155;28;20052;-61
2023/02/12 12:04:01;;;;;;;1.45;1.35;;;23.60;29.00;;;;;;5021638;28;20053;-61
2023/02/12 12:06:35;;;;;;;1.80;1.40;;;23.60;28.90;;;;;;5015555;28;20054;-61
2023/02/12 12:09:10;;;;;;;1.33;1.30;;;23.60;28.80;;;;;;5015426;28;20056;-61
2023/02/12 12:11:58;;;;;;;1.50;1.40;;;23.60;28.80;;;;;;5015126;28;20050;-61
2023/02/12 12:14:32;;;;;;;3.03;1.35;;;23.60;28.90;;;;;;5019302;28;20057;-61
2023/02/12 12:20:03;;;;;;;1.52;1.42;;;23.70;28.80;;;;;;5035169;28;20045;-61
2023/02/12 12:22:57;;;;;;;1.98;1.35;;;23.60;28.80;;;;;;5017670;28;20072;-61
2023/02/12 12:25:31;;;;;;;1.60;1.50;;;23.70;28.80;;;;;;5020512;28;20125;-61
2023/02/12 12:28:32;;;;;;;1.65;1.52;;;23.70;28.80;;;;;;5015453;28;20068;-61
2023/02/12 12:31:11;;;;;;;2.15;1.67;;;23.70;28.80;;;;;;5014189;28;20050;-61
2023/02/12 12:33:56;;;;;;;1.60;1.50;;;23.70;28.70;;;;;;5014812;28;20108;-61
2023/02/12 12:36:51;;;;;;;1.35;1.25;;;23.80;28.70;;;;;;4995476;28;20042;-61
2023/02/12 12:39:35;;;;;;;1.48;1.35;;;23.80;28.70;;;;;;4995252;28;20058;-61
2023/02/12 12:42:31;;;;;;;1.00;1.00;;;23.80;28.70;;;;;;4995194;28;20081;-61
2023/02/12 12:45:33;;;;;;;1.38;1.20;;;23.90;28.80;;;;;;5003880;28;20125;-61
2023/02/12 12:48:40;;;;;;;1.27;1.27;;;23.80;28.70;;;;;;5015839;28;20046;-61
2023/02/12 12:51:23;;;;;;;1.30;1.20;;;23.80;29.20;;;;;;5034322;28;20145;-61
2023/02/12 12:54:30;;;;;;;1.23;1.17;;;23.80;28.70;;;;;;5022581;28;20514;-61
2023/02/12 12:57:35;;;;;;;1.00;1.00;;;23.80;28.80;;;;;;5014478;28;20046;-61
2023/02/12 13:00:36;;;;;;;2.03;1.33;;;23.80;28.70;;;;;;5012947;28;20494;-61
2023/02/12 13:03:22;;;;;;;1.20;1.13;;;23.80;28.70;;;;;;5016162;28;20049;-61
2023/02/12 13:06:25;;;;;;;1.38;1.27;;;23.70;28.70;;;;;;5010200;28;20052;-61
2023/02/12 13:09:21;;;;;;;1.48;1.38;;;23.70;28.70;;;;;;5001031;28;20504;-61
2023/02/12 13:12:19;;;;;;;1.63;1.02;;;23.70;28.70;;;;;;5014541;28;20046;-61
2023/02/12 13:15:11;;;;;;;1.45;1.35;;;23.70;28.70;;;;;;5029358;28;20128;-61
2023/02/12 13:17:52;;;;;;;1.30;1.20;;;23.60;28.60;;;;;;5021263;28;20042;-61
2023/02/12 13:20:34;;;;;;;1.25;1.05;;;23.60;28.70;;;;;;5018009;28;20080;-61
2023/02/12 13:23:14;;;;;;;1.10;1.10;;;23.60;28.70;;;;;;5014345;28;20125;-61
2023/02/12 13:26:01;;;;;;;;;;;23.60;28.70;;;;;;5014225;28;20483;-62
2023/02/12 13:28:39;;;;;;;1.33;1.23;;;23.50;28.60;;;;;;5013900;28;20373;-61
2023/02/12 13:31:16;;;;;;;1.55;1.10;;;23.50;28.70;;;;;;5013741;28;20392;-61
2023/02/12 13:34:03;;;;;;;2.00;1.20;;;23.50;28.70;;;;;;5013443;28;20050;-61